• Join FlightAware (Why Join?)
  • Login
  • US Flag 
02:32AM EDT


 

Airport Tracker/Info


-or-


 

Live Flight TrackerFlight Track Log ✈ SWA706 ✈ 01-Jun-2013 ✈ KBWI - KHOU

Flight Track Log - Related Links

Times and Time Zones

All times are in EDT time to prevent confusion due to time zone crossing. See the SWA706 flight status page for this flight to view local times or setup timezone preferences in your user account.

Time Position Orientation Groundspeed Altitude Reporting Facility
EDT Latitude Longitude Course Direction KTS MPH feet Rate Location/Type
08:45AM 39.1833 -76.7500 284° West 192 221 2,500  Level Potomac TRACON
08:46AM 39.2000 -76.8333 284° West 260 299 4,500 2,280 Climbing Potomac TRACON
08:47AM 39.2167 -76.9333 282° West 279 321 7,200 2,940 Climbing Potomac TRACON
08:48AM 39.2167 -77.0333 270° West 286 329 10,500 3,240 Climbing Potomac TRACON
08:49AM 39.2167 -77.1333 270° West 292 336 13,700 3,060 Climbing Potomac TRACON
08:50AM 39.1500 -77.2000 218° Southwest 301 346 16,700 2,520 Climbing Potomac TRACON
08:51AM 39.0833 -77.2667 218° Southwest 334 384 18,800 1,980 Climbing Potomac TRACON
08:53AM 38.8997 -77.4000 209° Southwest 415 478 22,900 1,320 Climbing Washington Center
08:54AM 38.7989 -77.4617 205° Southwest 410 472 23,000  Climbing Washington Center
08:55AM 38.7017 -77.5336 210° Southwest 404 465 23,000  Level Washington Center
08:56AM 38.6147 -77.6217 218° Southwest 404 465 23,000  Level Washington Center
08:57AM 38.5300 -77.7069 218° Southwest 404 465 23,000 600 Level Washington Center
08:58AM 38.4694 -77.8219 236° Southwest 390 449 24,300 1,560 Climbing Washington Center
08:59AM 38.4128 -77.9553 242° Southwest 411 473 26,200 1,860 Climbing Washington Center
09:00AM 38.3472 -78.1014 240° Southwest 425 489 28,000 1,740 Climbing Washington Center
09:01AM 38.2900 -78.2397 242° Southwest 435 501 29,700 1,500 Climbing Washington Center
09:02AM 38.2264 -78.3803 240° Southwest 454 522 31,100 1,500 Climbing Washington Center
09:03AM 38.1644 -78.5231 241° Southwest 460 529 32,800 1,620 Climbing Washington Center
09:04AM 38.1092 -78.6531 242° Southwest 460 529 34,400 1,620 Climbing Washington Center
09:05AM 38.0472 -78.7956 241° Southwest 465 535 36,100 1,620 Climbing Washington Center
09:06AM 37.9850 -78.9325 240° Southwest 465 535 37,700 960 Climbing Washington Center
09:07AM 37.9161 -79.0822 240° Southwest 453 521 38,000 120 Climbing Washington Center
09:08AM 37.8517 -79.2158 239° Southwest 453 521 38,000  Level Washington Center
09:09AM 37.7850 -79.3494 238° Southwest 453 521 38,000  Level Washington Center
09:10AM 37.7269 -79.4697 239° Southwest 453 521 38,000  Level Washington Center
09:11AM 37.6511 -79.6156 237° Southwest 458 527 38,000  Level Washington Center
09:12AM 37.5906 -79.7356 238° Southwest 458 527 38,000  Level Washington Center
09:13AM 37.5144 -79.8858 237° Southwest 469 540 38,000  Level Washington Center
09:14AM 37.4472 -80.0156 237° Southwest 464 534 38,000  Level Washington Center
09:15AM 37.3886 -80.1322 238° Southwest 459 528 38,000  Level Washington Center
09:16AM 37.3189 -80.2639 236° Southwest 454 522 38,000  Level Washington Center
09:17AM 37.2647 -80.3644 236° Southwest 454 522 38,000  Level Atlanta Center
09:18AM 37.1978 -80.4953 237° Southwest 448 516 38,000  Level Atlanta Center
09:19AM 37.1386 -80.6100 237° Southwest 448 516 38,000  Level Atlanta Center
09:20AM 37.0753 -80.7403 239° Southwest 448 516 38,000  Level Atlanta Center
09:21AM 37.0247 -80.8800 246° West 448 516 38,000  Level Atlanta Center
09:22AM 36.9761 -81.0197 247° West 442 509 38,000  Level Atlanta Center
09:23AM 36.9236 -81.1722 247° West 437 503 38,000  Level Atlanta Center
09:24AM 36.8703 -81.3092 244° Southwest 437 503 38,000 180 Level Atlanta Center
09:25AM 36.8108 -81.4408 241° Southwest 443 510 38,400 600 Climbing Atlanta Center
09:26AM 36.7547 -81.5542 238° Southwest 448 516 39,200 780 Climbing Atlanta Center
09:27AM 36.6842 -81.6831 236° Southwest 442 509 40,000 360 Climbing Atlanta Center
09:28AM 36.6158 -81.8092 236° Southwest 447 514 40,000  Level Atlanta Center
09:29AM 36.5492 -81.9353 237° Southwest 447 514 40,000  Level Atlanta Center
09:30AM 36.4803 -82.0583 235° Southwest 447 514 40,000  Level Atlanta Center
09:31AM 36.4133 -82.1814 236° Southwest 441 507 40,000  Level Atlanta Center
09:32AM 36.3464 -82.3064 236° Southwest 441 507 40,000  Level Atlanta Center
09:33AM 36.2792 -82.4264 235° Southwest 441 507 40,000  Level Atlanta Center
09:34AM 36.2119 -82.5514 236° Southwest 441 507 40,000  Level Atlanta Center
09:35AM 36.1406 -82.6839 236° Southwest 436 502 40,000  Level Atlanta Center
09:36AM 36.0708 -82.8056 235° Southwest 436 502 40,000  Level Atlanta Center
09:37AM 36.0033 -82.9300 236° Southwest 436 502 40,000  Level Atlanta Center
09:38AM 35.9333 -83.0514 235° Southwest 436 502 40,000  Level Atlanta Center
09:39AM 35.8633 -83.1778 236° Southwest 441 507 40,000  Level Atlanta Center
09:40AM 35.7994 -83.3014 238° Southwest 441 507 40,000  Level Atlanta Center
09:41AM 35.7292 -83.4247 235° Southwest 447 514 40,000  Level Atlanta Center
09:42AM 35.6567 -83.5481 234° Southwest 447 514 40,000  Level Atlanta Center
09:43AM 35.5883 -83.6683 235° Southwest 447 514 40,000  Level Atlanta Center
09:44AM 35.5178 -83.7911 235° Southwest 447 514 40,000  Level Atlanta Center
09:45AM 35.4492 -83.9164 236° Southwest 447 514 40,000  Level Atlanta Center
09:46AM 35.3783 -84.0389 235° Southwest 447 514 40,000  Level Atlanta Center
09:47AM 35.3072 -84.1608 234° Southwest 447 514 40,000  Level Atlanta Center
09:48AM 35.2381 -84.2853 236° Southwest 447 514 40,000  Level Atlanta Center
09:49AM 35.1753 -84.3944 235° Southwest 447 514 40,000  Level Atlanta Center
09:50AM 35.1039 -84.5161 234° Southwest 447 514 40,000  Level Atlanta Center
09:51AM 35.0325 -84.6375 234° Southwest 447 514 40,000  Level Atlanta Center
09:52AM 34.9608 -84.7561 234° Southwest 447 514 40,000  Level Atlanta Center
09:53AM 34.8914 -84.8794 236° Southwest 447 514 40,000  Level Atlanta Center
09:54AM 34.8172 -85.0028 234° Southwest 447 514 40,000  Level Atlanta Center
09:55AM 34.7453 -85.1233 234° Southwest 447 514 40,000  Level Atlanta Center
09:56AM 34.6711 -85.2461 234° Southwest 447 514 40,000  Level Atlanta Center
09:57AM 34.6011 -85.3686 235° Southwest 447 514 40,000  Level Atlanta Center
09:58AM 34.5308 -85.4911 235° Southwest 447 514 40,000  Level Atlanta Center
09:59AM 34.4564 -85.6133 234° Southwest 447 514 40,000  Level Atlanta Center
10:00AM 34.3858 -85.7278 233° Southwest 442 509 40,000  Level Atlanta Center
10:01AM 34.3069 -85.8544 233° Southwest 442 509 40,000  Level Atlanta Center
10:02AM 34.2383 -85.9761 236° Southwest 437 503 40,000  Level Atlanta Center
10:03AM 34.1675 -86.0900 233° Southwest 437 503 40,000  Level Atlanta Center
10:04AM 34.0967 -86.2061 234° Southwest 437 503 40,000  Level Atlanta Center
10:05AM 34.0236 -86.3197 232° Southwest 432 497 40,000  Level Atlanta Center
10:06AM 33.9547 -86.4331 234° Southwest 432 497 40,000  Level Atlanta Center
10:07AM 33.8836 -86.5486 233° Southwest 432 497 40,000  Level Atlanta Center
10:08AM 33.8122 -86.6639 233° Southwest 432 497 40,000  Level Atlanta Center
10:09AM 33.7431 -86.7767 234° Southwest 432 497 40,000  Level Atlanta Center
10:10AM 33.6736 -86.8944 235° Southwest 432 497 40,000  Level Atlanta Center
10:11AM 33.6244 -87.0250 246° West 432 497 40,000  Level Atlanta Center
10:12AM 33.5794 -87.1581 248° West 432 497 40,000  Level Atlanta Center
10:13AM 33.5342 -87.2936 248° West 437 503 40,000  Level Atlanta Center
10:15AM 33.4597 -87.5111 248° West 445 512 40,000  Level Memphis Center
10:16AM 33.4125 -87.6447 247° West 445 512 40,000  Level Memphis Center
10:17AM 33.3672 -87.7778 248° West 439 505 40,000  Level Memphis Center
10:18AM 33.3200 -87.9111 247° West 439 505 40,000  Level Memphis Center
10:19AM 33.2744 -88.0414 247° West 439 505 40,000  Level Memphis Center
10:20AM 33.2289 -88.1767 248° West 439 505 40,000  Level Memphis Center
10:21AM 33.1892 -88.2919 248° West 439 505 40,000  Level Memphis Center
10:22AM 33.1453 -88.4219 248° West 439 505 40,000  Level Memphis Center
10:23AM 33.0992 -88.5544 247° West 439 505 40,000  Level Memphis Center
10:24AM 33.0511 -88.6842 246° West 439 505 40,000  Level Memphis Center
10:25AM 33.0047 -88.8139 247° West 439 505 40,000  Level Memphis Center
10:26AM 32.9561 -88.9461 246° West 439 505 40,000  Level Memphis Center
10:27AM 32.9094 -89.0778 247° West 439 505 40,000  Level Memphis Center
10:28AM 32.8606 -89.2072 246° West 439 505 40,000  Level Memphis Center
10:29AM 32.8139 -89.3389 247° West 439 505 40,000  Level Memphis Center
10:30AM 32.7647 -89.4678 246° West 439 505 40,000  Level Memphis Center
10:31AM 32.7175 -89.5992 247° West 439 505 40,000  Level Memphis Center
10:32AM 32.6661 -89.7281 245° Southwest 439 505 40,000  Level Memphis Center
10:33AM 32.6208 -89.8592 248° West 439 505 40,000  Level Memphis Center
10:34AM 32.5733 -89.9850 246° West 439 505 40,000  Level Memphis Center
10:35AM 32.5275 -90.1108 247° West 439 505 40,000  Level Memphis Center
10:36AM 32.4714 -90.2317 241° Southwest 433 498 40,000  Level Memphis Center
10:37AM 32.4131 -90.3475 239° Southwest 421 484 40,000  Level Memphis Center
10:38AM 32.3525 -90.4606 238° Southwest 415 478 40,000  Level Memphis Center
10:39AM 32.2939 -90.5761 239° Southwest 415 478 40,000  Level Memphis Center
10:39AM 32.2678 -90.6261 238° Southwest 406 467 40,000  Level Houston Center
10:40AM 32.2092 -90.7392 239° Southwest 404 465 40,000  Level Houston Center
10:41AM 32.1397 -90.8706 238° Southwest 404 465 40,000  Level Houston Center
10:42AM 32.0794 -90.9828 238° Southwest 405 466 40,000  Level Houston Center
10:43AM 32.0186 -91.0972 238° Southwest 410 472 40,000  Level Houston Center
10:44AM 31.9583 -91.2103 238° Southwest 403 464 40,000  Level Houston Center
10:45AM 31.8969 -91.3233 237° Southwest 406 467 40,000  Level Houston Center
10:46AM 31.8381 -91.4364 239° Southwest 404 465 40,000  Level Houston Center
10:47AM 31.7772 -91.5478 237° Southwest 402 463 40,000  Level Houston Center
10:48AM 31.7053 -91.6814 238° Southwest 399 459 40,000  Level Houston Center
10:49AM 31.6450 -91.7919 237° Southwest 400 460 40,000  Level Houston Center
10:50AM 31.5842 -91.9033 237° Southwest 402 463 40,000  Level Houston Center
10:51AM 31.5239 -92.0144 238° Southwest 402 463 40,000  Level Houston Center
10:53AM 31.4586 -92.1319 237° Southwest 405 466 40,000  Level Houston Center
10:54AM 31.3972 -92.2439 237° Southwest 409 471 40,000  Level Houston Center
10:55AM 31.3342 -92.3556 237° Southwest 414 476 40,000  Level Houston Center
10:56AM 31.2722 -92.4672 237° Southwest 412 474 40,000  Level Houston Center
10:57AM 31.2211 -92.5842 243° Southwest 408 470 40,000  Level Houston Center
10:58AM 31.1706 -92.7336 248° West 413 475 40,000  Level Houston Center
10:59AM 31.1258 -92.8533 246° West 407 468 40,000  Level Houston Center
11:00AM 31.0803 -92.9736 246° West 407 468 40,000  Level Houston Center
11:01AM 31.0361 -93.0939 247° West 406 467 40,000  Level Houston Center
11:02AM 30.9919 -93.2136 247° West 404 465 40,000  Level Houston Center
11:03AM 30.9464 -93.3342 246° West 408 470 40,000  Level Houston Center
11:04AM 30.8928 -93.4775 246° West 407 468 40,000 -480 Level Houston Center
11:05AM 30.8478 -93.5969 246° West 407 468 39,100 -1,680 Descending Houston Center
11:06AM 30.8036 -93.7156 247° West 404 465 36,600 -2,700 Descending Houston Center
11:07AM 30.7578 -93.8367 246° West 411 473 33,600 -2,880 Descending Houston Center
11:08AM 30.7100 -93.9600 246° West 419 482 30,800 -2,880 Descending Houston Center
11:09AM 30.6539 -94.1072 246° West 419 482 27,700 -2,700 Descending Houston Center
11:10AM 30.6081 -94.2253 246° West 409 471 25,300 -2,280 Descending Houston Center
11:11AM 30.5656 -94.3397 247° West 396 456 23,100 -2,100 Descending Houston Center
11:12AM 30.5231 -94.4497 246° West 381 438 21,000 -2,040 Descending Houston Center
11:13AM 30.4728 -94.5506 240° Southwest 366 421 18,900 -2,220 Descending Houston Center
11:14AM 30.4042 -94.6594 234° Southwest 361 415 16,500 -2,280 Descending Houston Center
11:15AM 30.3469 -94.7492 234° Southwest 352 405 14,300 -1,740 Descending Houston Center
11:16AM 30.2886 -94.8369 232° Southwest 345 397 13,000 -600 Descending Houston Center
11:17AM 30.2317 -94.9269 234° Southwest 348 400 13,100 -120 Climbing Houston Center
11:18AM 30.1736 -95.0161 233° Southwest 347 399 12,800 -660 Descending Houston Center
11:19AM 30.0994 -95.0864 219° Southwest 354 407 11,800 -1,080 Descending Houston Center
11:20AM 29.9914 -95.1328 200° South 347 399 10,600 -960 Descending Houston Center
11:21AM 29.9058 -95.1694 200° South 299 344 9,900 -1,080 Descending Houston Center
11:22AM 29.8311 -95.2028 201° Southwest 284 327 8,500 -1,380 Descending Houston Center
11:23AM 29.7583 -95.2333 200° South 268 308 7,200 -1,620 Descending Houston Center
11:24AM 29.7306 -95.2969 243° Southwest 269 310 5,300 -1,920 Descending Houston Center
11:26AM 29.7886 -95.3647 315° West 277 319 3,200 -1,560 Descending Houston Center
11:26AM 29.7503 -95.3978 217° Southwest 204 235 2,200 -780 Descending Houston Center
11:28AM 29.7103 -95.3564 138° Southeast 211 243 1,700 -600 Descending Houston Center
11:29AM 29.6828 -95.3239 134° Southeast 172 198 1,000 -720 Descending Houston Center
11:30AM 29.6569 -95.2936 134° Southeast 125 144 400 -480 Descending Houston Center
11:31AM 29.6294 -95.2617 135° Southeast 134 154 100 -300 Descending Houston Center